createdAt,value
2023-10-11T00:00:32.099Z,5.11
2023-10-11T00:03:31.575Z,5.03
2023-10-11T00:06:07.728Z,4.97
2023-10-11T00:08:42.360Z,4.89
2023-10-11T00:11:17.277Z,4.83
2023-10-11T00:13:51.161Z,4.76
2023-10-11T00:16:24.284Z,4.69
2023-10-11T00:18:58.631Z,4.63
2023-10-11T00:21:54.930Z,4.57
2023-10-11T00:24:26.198Z,4.51
2023-10-11T00:27:04.867Z,4.46
2023-10-11T00:29:41.862Z,4.39
2023-10-11T00:32:16.358Z,4.30
2023-10-11T00:34:48.641Z,4.23
2023-10-11T00:37:26.164Z,4.19
2023-10-11T00:39:59.905Z,4.17
2023-10-11T00:42:34.324Z,4.14
2023-10-11T00:45:09.845Z,4.12
2023-10-11T00:47:45.039Z,4.09
2023-10-11T00:50:17.953Z,4.06
2023-10-11T00:52:58.210Z,4.02
2023-10-11T00:55:31.489Z,3.97
2023-10-11T00:58:13.704Z,3.90
2023-10-11T01:00:45.516Z,3.84
2023-10-11T01:03:17.029Z,3.78
2023-10-11T01:05:51.622Z,3.73
2023-10-11T01:08:25.915Z,3.69
2023-10-11T01:11:04.050Z,3.64
2023-10-11T01:13:44.009Z,3.61
2023-10-11T01:16:17.011Z,3.57
2023-10-11T01:18:50.743Z,3.54
2023-10-11T01:21:23.093Z,3.52
2023-10-11T01:23:53.358Z,3.49
2023-10-11T01:26:25.836Z,3.45
2023-10-11T01:28:59.891Z,3.41
2023-10-11T01:31:35.323Z,3.35
2023-10-11T01:34:09.205Z,3.29
2023-10-11T01:36:42.943Z,3.23
2023-10-11T01:39:24.153Z,3.17
2023-10-11T01:42:01.283Z,3.12
2023-10-11T01:44:34.205Z,3.08
2023-10-11T01:47:07.408Z,3.04
2023-10-11T01:49:44.846Z,3.03
2023-10-11T01:52:16.022Z,3.05
2023-10-11T01:54:46.079Z,3.05
2023-10-11T01:57:16.171Z,3.03
2023-10-11T01:59:49.455Z,3.02
2023-10-11T02:02:28.848Z,3.01
2023-10-11T02:05:02.590Z,2.99
2023-10-11T02:07:35.858Z,2.96
2023-10-11T02:10:06.968Z,2.96
2023-10-11T02:12:37.750Z,2.95
2023-10-11T02:15:10.556Z,2.93
2023-10-11T02:17:41.978Z,2.91
2023-10-11T02:20:24.206Z,2.87
2023-10-11T02:22:57.687Z,2.81
2023-10-11T02:25:28.906Z,2.77
2023-10-11T02:28:00.642Z,2.77
2023-10-11T02:30:41.075Z,2.77
2023-10-11T02:33:14.258Z,2.78
2023-10-11T02:35:54.809Z,2.79
2023-10-11T02:38:28.128Z,2.80
2023-10-11T02:40:59.227Z,2.81
2023-10-11T02:43:30.529Z,2.81
2023-10-11T02:46:01.660Z,2.80
2023-10-11T02:48:32.612Z,2.79
2023-10-11T02:51:19.760Z,2.77
2023-10-11T02:53:54.993Z,2.76
2023-10-11T02:56:26.159Z,2.74
2023-10-11T02:58:56.726Z,2.72
2023-10-11T03:01:33.638Z,2.71
2023-10-11T03:04:05.021Z,2.71
2023-10-11T03:06:38.058Z,2.68
2023-10-11T03:09:14.315Z,2.62
2023-10-11T03:11:48.001Z,2.59
2023-10-11T03:14:22.861Z,2.57
2023-10-11T03:17:08.092Z,2.54
2023-10-11T03:19:44.772Z,2.53
2023-10-11T03:22:25.115Z,2.54
2023-10-11T03:24:56.131Z,2.57
2023-10-11T03:27:29.099Z,2.59
2023-10-11T03:30:01.876Z,2.59
2023-10-11T03:32:32.078Z,2.60
2023-10-11T03:35:01.971Z,2.62
2023-10-11T03:37:33.287Z,2.64
2023-10-11T03:40:13.491Z,2.63
2023-10-11T03:43:02.009Z,2.61
2023-10-11T03:45:36.360Z,2.55
2023-10-11T03:48:12.354Z,2.51
2023-10-11T03:50:49.430Z,2.48
2023-10-11T03:53:19.881Z,2.44
2023-10-11T03:55:50.044Z,2.39
2023-10-11T03:58:33.038Z,2.33
2023-10-11T04:01:14.400Z,2.28
2023-10-11T04:03:45.513Z,2.23
2023-10-11T04:06:35.216Z,2.22
2023-10-11T04:09:06.307Z,2.25
2023-10-11T04:11:39.734Z,2.28
2023-10-11T04:14:19.695Z,2.37
2023-10-11T04:16:51.418Z,2.45
2023-10-11T04:19:23.428Z,2.52
2023-10-11T04:21:52.966Z,2.56
2023-10-11T04:24:22.248Z,2.55
2023-10-11T04:27:21.093Z,2.51
2023-10-11T04:29:53.724Z,2.41
2023-10-11T04:32:43.000Z,2.34
2023-10-11T04:35:32.800Z,2.24
2023-10-11T04:38:05.274Z,2.13
2023-10-11T04:40:34.999Z,2.07
2023-10-11T04:43:06.537Z,2.01
2023-10-11T04:48:35.266Z,1.95
2023-10-11T04:51:23.677Z,2.00
2023-10-11T04:53:53.645Z,2.07
2023-10-11T04:56:45.658Z,2.10
2023-10-11T04:59:29.990Z,2.13
2023-10-11T05:02:10.959Z,2.15
2023-10-11T05:04:47.046Z,2.19
2023-10-11T05:07:21.860Z,2.22
2023-10-11T05:10:10.414Z,2.29
2023-10-11T05:12:43.815Z,2.37
2023-10-11T05:15:16.039Z,2.44
2023-10-11T05:18:00.952Z,2.54
2023-10-11T05:20:43.942Z,2.69
2023-10-11T05:23:16.232Z,2.87
2023-10-11T05:26:00.669Z,3.17
2023-10-11T05:28:32.759Z,3.53
2023-10-11T05:31:15.022Z,3.95
2023-10-11T05:34:01.844Z,4.38
2023-10-11T05:36:51.015Z,4.80
2023-10-11T05:39:39.479Z,5.21
2023-10-11T05:42:28.570Z,5.51
2023-10-11T05:45:17.421Z,5.85
2023-10-11T05:48:06.494Z,6.03
2023-10-11T05:50:55.433Z,6.22
2023-10-11T05:53:26.459Z,6.36
2023-10-11T05:55:57.904Z,6.42
2023-10-11T05:58:27.552Z,6.48
2023-10-11T06:00:57.549Z,6.53
2023-10-11T06:03:30.907Z,6.66
2023-10-11T06:06:13.040Z,6.78
2023-10-11T06:08:46.877Z,6.90
2023-10-11T06:11:17.514Z,6.87
2023-10-11T06:13:49.991Z,6.95
2023-10-11T06:16:24.204Z,7.00
2023-10-11T06:19:18.723Z,7.01
2023-10-11T06:22:08.388Z,7.18
2023-10-11T06:24:41.947Z,7.36
2023-10-11T06:27:46.839Z,7.55
2023-10-11T06:30:19.079Z,7.78
2023-10-11T06:32:51.260Z,8.01
2023-10-11T06:35:26.651Z,8.19
2023-10-11T06:37:57.497Z,8.44
2023-10-11T06:40:48.992Z,8.61
2023-10-11T06:43:19.507Z,8.56
2023-10-11T06:45:51.320Z,8.70
2023-10-11T06:48:24.205Z,8.82
2023-10-11T06:50:54.480Z,8.92
2023-10-11T06:53:24.485Z,9.03
2023-10-11T06:55:55.232Z,9.09
2023-10-11T06:58:24.436Z,9.33
2023-10-11T07:00:55.012Z,9.49
2023-10-11T07:03:27.165Z,9.72
2023-10-11T07:06:12.430Z,9.96
2023-10-11T07:08:51.177Z,10.02
2023-10-11T07:11:48.611Z,10.35
2023-10-11T07:14:19.662Z,10.45
2023-10-11T07:16:48.934Z,10.61
2023-10-11T07:19:18.456Z,10.78
2023-10-11T07:21:48.369Z,10.95
2023-10-11T07:24:33.764Z,11.06
2023-10-11T07:27:11.975Z,11.22
2023-10-11T07:29:51.138Z,11.44
2023-10-11T07:32:21.696Z,11.56
2023-10-11T07:34:56.740Z,11.59
2023-10-11T07:37:28.592Z,11.75
2023-10-11T07:40:02.118Z,11.99
2023-10-11T07:42:39.182Z,11.99
2023-10-11T07:45:14.825Z,12.16
2023-10-11T07:47:47.659Z,12.42
2023-10-11T07:50:24.416Z,12.52
2023-10-11T07:52:56.911Z,12.63
2023-10-11T07:55:27.794Z,12.59
2023-10-11T07:58:03.689Z,12.69
2023-10-11T08:00:33.769Z,12.70
2023-10-11T08:03:07.008Z,12.96
2023-10-11T08:05:47.490Z,13.13
2023-10-11T08:08:18.861Z,13.20
2023-10-11T08:10:54.113Z,13.48
2023-10-11T08:13:27.519Z,13.58
2023-10-11T08:16:01.448Z,13.89
2023-10-11T08:18:31.298Z,13.98
2023-10-11T08:21:01.032Z,14.49
2023-10-11T08:23:31.349Z,14.86
2023-10-11T08:26:07.564Z,15.09
2023-10-11T08:28:37.216Z,15.16
2023-10-11T08:31:12.020Z,15.47
2023-10-11T08:33:41.842Z,15.70
2023-10-11T08:36:15.504Z,15.84
2023-10-11T08:38:46.340Z,15.90
2023-10-11T08:41:17.667Z,16.06
2023-10-11T08:43:50.853Z,15.79
2023-10-11T08:46:21.218Z,15.41
2023-10-11T08:48:52.027Z,15.51
2023-10-11T08:51:25.088Z,15.51
2023-10-11T08:54:02.439Z,15.68
2023-10-11T08:56:36.048Z,15.29
2023-10-11T08:59:05.785Z,15.13
2023-10-11T09:01:39.722Z,15.01
2023-10-11T09:04:13.340Z,15.19
2023-10-11T09:06:46.884Z,15.33
2023-10-11T09:09:41.872Z,15.64
2023-10-11T09:12:26.780Z,15.48
2023-10-11T09:15:00.761Z,15.22
2023-10-11T09:17:33.450Z,15.08
2023-10-11T09:20:05.270Z,15.14
2023-10-11T09:22:49.440Z,15.33
2023-10-11T09:25:35.559Z,15.46
2023-10-11T09:28:06.087Z,15.54
2023-10-11T09:30:46.227Z,15.74
2023-10-11T09:33:20.403Z,15.72
2023-10-11T09:35:52.421Z,15.69
2023-10-11T09:38:23.256Z,15.90
2023-10-11T09:40:55.210Z,16.15
2023-10-11T09:43:26.456Z,16.45
2023-10-11T09:45:56.179Z,16.41
2023-10-11T09:48:25.890Z,16.33
2023-10-11T09:50:59.455Z,16.76
2023-10-11T09:53:29.343Z,17.19
2023-10-11T09:56:17.641Z,17.63
2023-10-11T09:59:11.107Z,18.11
2023-10-11T10:02:04.730Z,18.22
2023-10-11T10:04:53.486Z,18.63
2023-10-11T10:07:42.195Z,19.35
2023-10-11T10:10:17.267Z,19.82
2023-10-11T10:13:11.405Z,20.95
2023-10-11T10:15:54.691Z,21.37
2023-10-11T10:18:29.175Z,21.76
2023-10-11T10:21:09.030Z,22.05
2023-10-11T10:23:44.233Z,23.09
2023-10-11T10:26:14.186Z,23.09
2023-10-11T10:28:47.186Z,23.86
2023-10-11T10:31:23.447Z,23.84
2023-10-11T10:34:15.755Z,24.43
2023-10-11T10:36:45.863Z,25.24
2023-10-11T10:39:35.177Z,25.74
2023-10-11T10:42:17.041Z,25.48
2023-10-11T10:44:52.680Z,24.12
2023-10-11T10:47:27.992Z,24.37
2023-10-11T10:49:58.552Z,23.69
2023-10-11T10:52:31.545Z,24.65
2023-10-11T10:55:05.019Z,24.61
2023-10-11T10:57:39.141Z,24.63
2023-10-11T11:00:23.000Z,25.05
2023-10-11T11:02:55.414Z,25.36
2023-10-11T11:05:32.649Z,25.27
2023-10-11T11:08:17.751Z,24.98
2023-10-11T11:10:57.032Z,25.18
2023-10-11T11:13:31.078Z,25.17
2023-10-11T11:16:01.581Z,25.80
2023-10-11T11:18:34.516Z,25.50
2023-10-11T11:21:27.165Z,25.46
2023-10-11T11:23:57.692Z,25.63
2023-10-11T11:26:33.551Z,26.66
2023-10-11T11:29:18.787Z,26.67
2023-10-11T11:31:55.697Z,27.78
2023-10-11T11:34:39.537Z,26.68
2023-10-11T11:39:53.871Z,26.72
2023-10-11T11:42:26.549Z,27.11
2023-10-11T11:44:57.399Z,28.45
2023-10-11T11:47:27.815Z,29.06
2023-10-11T11:50:02.028Z,28.78
2023-10-11T11:52:31.227Z,28.64
2023-10-11T11:55:00.623Z,28.92
2023-10-11T11:57:31.877Z,29.43
2023-10-11T12:00:21.602Z,29.59
2023-10-11T12:02:55.875Z,30.04
2023-10-11T12:05:25.481Z,29.95
2023-10-11T12:08:00.007Z,29.96
2023-10-11T12:10:30.015Z,29.84
2023-10-11T12:13:07.435Z,29.92
2023-10-11T12:15:38.026Z,29.39
2023-10-11T12:18:12.043Z,30.28
2023-10-11T12:20:41.750Z,30.28
2023-10-11T12:23:11.821Z,30.68
2023-10-11T12:25:41.992Z,31.13
2023-10-11T12:28:13.426Z,30.91
2023-10-11T12:30:46.772Z,30.47
2023-10-11T12:33:16.786Z,30.09
2023-10-11T12:35:46.466Z,30.30
2023-10-11T12:38:16.180Z,30.46
2023-10-11T12:40:46.453Z,29.67
2023-10-11T12:43:17.221Z,28.64
2023-10-11T12:45:47.331Z,29.06
2023-10-11T12:48:17.775Z,29.12
2023-10-11T12:50:47.280Z,28.50
2023-10-11T12:53:17.299Z,28.09
2023-10-11T12:55:50.662Z,27.76
2023-10-11T12:58:20.995Z,27.89
2023-10-11T13:00:53.330Z,28.12
2023-10-11T13:03:23.413Z,28.92
2023-10-11T13:05:54.527Z,28.64
2023-10-11T13:08:29.941Z,29.06
2023-10-11T13:10:59.502Z,28.92
2023-10-11T13:13:32.798Z,29.44
2023-10-11T13:16:02.591Z,29.39
2023-10-11T13:18:34.786Z,29.55
2023-10-11T13:21:06.775Z,29.41
2023-10-11T13:23:36.664Z,28.46
2023-10-11T13:26:09.464Z,27.69
2023-10-11T13:28:41.416Z,27.20
2023-10-11T13:31:11.840Z,27.32
2023-10-11T13:33:42.286Z,26.23
2023-10-11T13:36:14.023Z,26.89
2023-10-11T13:38:47.098Z,26.47
2023-10-11T13:41:17.907Z,26.15
2023-10-11T13:43:47.332Z,26.19
2023-10-11T13:46:18.949Z,26.71
2023-10-11T13:48:52.055Z,27.23
2023-10-11T13:51:23.420Z,27.23
2023-10-11T13:53:53.625Z,26.93
2023-10-11T13:56:23.224Z,27.53
2023-10-11T13:58:54.458Z,27.51
2023-10-11T14:01:50.316Z,27.77
2023-10-11T14:04:39.866Z,26.76
2023-10-11T14:07:21.989Z,27.09
2023-10-11T14:09:56.504Z,27.16
2023-10-11T14:12:30.736Z,27.19
2023-10-11T14:15:00.501Z,26.90
2023-10-11T14:17:33.165Z,25.79
2023-10-11T14:20:07.440Z,24.41
2023-10-11T14:22:37.039Z,22.77
2023-10-11T14:25:09.246Z,22.82
2023-10-11T14:27:41.540Z,22.50
2023-10-11T14:30:17.244Z,22.02
2023-10-11T14:32:48.187Z,21.71
2023-10-11T14:35:18.663Z,21.40
2023-10-11T14:37:47.910Z,21.08
2023-10-11T14:40:17.515Z,20.78
2023-10-11T14:42:47.615Z,20.51
2023-10-11T14:45:19.528Z,20.26
2023-10-11T14:47:49.528Z,20.04
2023-10-11T14:50:28.824Z,19.84
2023-10-11T14:53:01.576Z,19.60
2023-10-11T14:55:34.156Z,19.30
2023-10-11T14:58:03.496Z,19.11
2023-10-11T15:00:35.653Z,18.88
2023-10-11T15:03:06.317Z,18.63
2023-10-11T15:05:38.450Z,18.43
2023-10-11T15:08:07.857Z,18.18
2023-10-11T15:10:37.591Z,17.94
2023-10-11T15:13:08.334Z,17.69
2023-10-11T15:15:37.713Z,17.53
2023-10-11T15:18:07.296Z,17.35
2023-10-11T15:20:36.506Z,17.23
2023-10-11T15:23:06.511Z,17.13
2023-10-11T15:25:35.523Z,17.06
2023-10-11T15:28:07.459Z,17.01
2023-10-11T15:30:42.961Z,16.92
2023-10-11T15:33:14.465Z,16.79
2023-10-11T15:35:49.010Z,16.64
2023-10-11T15:38:18.339Z,16.49
2023-10-11T15:41:01.292Z,16.37
2023-10-11T15:43:36.154Z,16.19
2023-10-11T15:46:06.990Z,16.03
2023-10-11T15:48:36.513Z,15.93
2023-10-11T15:51:17.265Z,15.82
2023-10-11T15:53:49.663Z,15.75
2023-10-11T15:56:18.929Z,15.70
2023-10-11T15:58:48.397Z,15.70
2023-10-11T16:01:18.002Z,15.66
2023-10-11T16:03:54.475Z,15.64
2023-10-11T16:06:26.635Z,15.65
2023-10-11T16:08:55.883Z,15.60
2023-10-11T16:11:25.167Z,15.56
2023-10-11T16:13:54.161Z,15.50
2023-10-11T16:16:23.320Z,15.44
2023-10-11T16:18:53.631Z,15.42
2023-10-11T16:21:23.259Z,15.39
2023-10-11T16:23:53.418Z,15.36
2023-10-11T16:26:22.913Z,15.30
2023-10-11T16:28:52.121Z,15.23
2023-10-11T16:31:21.313Z,15.18
2023-10-11T16:33:54.296Z,15.12
2023-10-11T16:36:23.421Z,15.09
2023-10-11T16:38:55.588Z,15.04
2023-10-11T16:41:25.006Z,15.00
2023-10-11T16:43:53.642Z,14.99
2023-10-11T16:48:55.110Z,14.96
2023-10-11T16:51:23.904Z,14.87
2023-10-11T16:53:54.455Z,14.73
2023-10-11T16:56:25.056Z,14.66
2023-10-11T16:58:54.158Z,14.61
2023-10-11T17:01:23.403Z,14.57
2023-10-11T17:03:54.092Z,14.53
2023-10-11T17:06:22.929Z,14.52
2023-10-11T17:08:51.772Z,14.50
2023-10-11T17:11:21.172Z,14.50
2023-10-11T17:13:49.955Z,14.48
2023-10-11T17:16:19.002Z,14.48
2023-10-11T17:18:48.940Z,14.49
2023-10-11T17:21:18.087Z,14.49
2023-10-11T17:23:46.956Z,14.50
2023-10-11T17:26:16.976Z,14.52
2023-10-11T17:28:46.886Z,14.51
2023-10-11T17:31:15.867Z,14.51
2023-10-11T17:33:45.509Z,14.51
2023-10-11T17:36:14.669Z,14.50
2023-10-11T17:38:43.681Z,14.48
2023-10-11T17:41:14.925Z,14.46
2023-10-11T17:43:44.522Z,14.41
2023-10-11T17:46:13.558Z,14.38
2023-10-11T17:48:42.489Z,14.38
2023-10-11T17:51:22.271Z,14.37
2023-10-11T17:53:51.769Z,14.34
2023-10-11T17:56:20.753Z,14.31
2023-10-11T17:58:50.259Z,14.24
2023-10-11T18:01:19.849Z,14.18
2023-10-11T18:03:49.867Z,14.14
2023-10-11T18:06:19.497Z,14.09
2023-10-11T18:08:48.892Z,14.04
2023-10-11T18:11:18.701Z,13.97
2023-10-11T18:13:48.967Z,13.92
2023-10-11T18:16:19.653Z,13.88
2023-10-11T18:18:50.209Z,13.88
2023-10-11T18:21:19.137Z,13.87
2023-10-11T18:23:48.166Z,13.82
2023-10-11T18:26:16.955Z,13.77
2023-10-11T18:28:48.327Z,13.72
2023-10-11T18:31:17.780Z,13.70
2023-10-11T18:33:46.602Z,13.70
2023-10-11T18:36:15.815Z,13.68
2023-10-11T18:38:45.825Z,13.67
2023-10-11T18:41:14.807Z,13.64
2023-10-11T18:43:44.986Z,13.61
2023-10-11T18:46:15.248Z,13.60
2023-10-11T18:48:44.188Z,13.59
2023-10-11T18:51:17.577Z,13.57
2023-10-11T18:53:47.548Z,13.54
2023-10-11T18:56:16.140Z,13.53
2023-10-11T18:58:45.779Z,13.53
2023-10-11T19:01:18.667Z,13.55
2023-10-11T19:03:54.124Z,13.57
2023-10-11T19:06:25.744Z,13.58
2023-10-11T19:08:57.180Z,13.58
2023-10-11T19:11:30.721Z,13.57
2023-10-11T19:14:01.957Z,13.55
2023-10-11T19:16:31.411Z,13.52
2023-10-11T19:19:01.171Z,13.50
2023-10-11T19:21:30.884Z,13.49
2023-10-11T19:24:01.824Z,13.49
2023-10-11T19:26:31.407Z,13.45
2023-10-11T19:29:00.701Z,13.41
2023-10-11T19:31:30.220Z,13.35
2023-10-11T19:33:59.797Z,13.34
2023-10-11T19:36:28.959Z,13.33
2023-10-11T19:38:58.726Z,13.34
2023-10-11T19:41:28.117Z,13.32
2023-10-11T19:43:57.307Z,13.31
2023-10-11T19:46:28.104Z,13.29
2023-10-11T19:48:56.953Z,13.30
2023-10-11T19:51:26.364Z,13.32
2023-10-11T19:53:55.549Z,13.35
2023-10-11T19:56:26.503Z,13.33
2023-10-11T19:58:55.360Z,13.32
2023-10-11T20:01:25.128Z,13.29
2023-10-11T20:03:55.032Z,13.29
2023-10-11T20:06:24.549Z,13.28
2023-10-11T20:08:55.158Z,13.25
2023-10-11T20:11:25.253Z,13.23
2023-10-11T20:13:54.466Z,13.23
2023-10-11T20:16:23.894Z,13.23
2023-10-11T20:18:53.164Z,13.21
2023-10-11T20:21:24.219Z,13.19
2023-10-11T20:23:57.388Z,13.12
2023-10-11T20:26:27.203Z,13.08
2023-10-11T20:28:58.677Z,13.02
2023-10-11T20:31:29.312Z,12.94
2023-10-11T20:33:59.445Z,12.90
2023-10-11T20:36:31.219Z,12.88
2023-10-11T20:39:00.266Z,12.83
2023-10-11T20:41:31.631Z,12.81
2023-10-11T20:44:01.614Z,12.76
2023-10-11T20:46:36.131Z,12.72
2023-10-11T20:49:06.178Z,12.69
2023-10-11T20:51:38.199Z,12.68
2023-10-11T20:54:12.985Z,12.66
2023-10-11T20:56:47.794Z,12.62
2023-10-11T20:59:19.999Z,12.59
2023-10-11T21:01:49.976Z,12.56
2023-10-11T21:04:20.282Z,12.52
2023-10-11T21:06:50.037Z,12.47
2023-10-11T21:09:23.149Z,12.42
2023-10-11T21:11:53.697Z,12.35
2023-10-11T21:14:23.320Z,12.29
2023-10-11T21:16:52.660Z,12.19
2023-10-11T21:19:22.413Z,12.12
2023-10-11T21:21:52.327Z,12.04
2023-10-11T21:24:23.317Z,11.95
2023-10-11T21:26:52.694Z,11.84
2023-10-11T21:29:23.765Z,11.73
2023-10-11T21:31:56.946Z,11.62
2023-10-11T21:34:27.259Z,11.52
2023-10-11T21:36:57.761Z,11.42
2023-10-11T21:39:27.943Z,11.33
2023-10-11T21:41:58.143Z,11.24
2023-10-11T21:44:29.086Z,11.15
2023-10-11T21:46:59.838Z,11.05
2023-10-11T21:49:30.927Z,10.95
2023-10-11T21:52:01.272Z,10.87
2023-10-11T21:54:31.579Z,10.79
2023-10-11T21:57:02.423Z,10.73
2023-10-11T21:59:32.225Z,10.68
2023-10-11T22:02:03.802Z,10.63
2023-10-11T22:04:35.256Z,10.58
2023-10-11T22:07:05.266Z,10.53
2023-10-11T22:09:35.068Z,10.49
2023-10-11T22:12:06.218Z,10.43
2023-10-11T22:14:39.034Z,10.38
2023-10-11T22:17:09.088Z,10.33
2023-10-11T22:19:40.097Z,10.26
2023-10-11T22:22:12.429Z,10.17
2023-10-11T22:24:45.686Z,10.07
2023-10-11T22:27:17.495Z,9.99
2023-10-11T22:29:52.609Z,9.93
2023-10-11T22:32:25.190Z,9.89
2023-10-11T22:34:56.708Z,9.86
2023-10-11T22:37:31.527Z,9.83
2023-10-11T22:40:04.322Z,9.79
2023-10-11T22:42:34.246Z,9.73
2023-10-11T22:45:06.835Z,9.66
2023-10-11T22:47:37.001Z,9.58
2023-10-11T22:50:10.554Z,9.51
2023-10-11T22:52:41.089Z,9.44
2023-10-11T22:55:11.230Z,9.38
2023-10-11T22:57:45.098Z,9.33
2023-10-11T23:00:21.949Z,9.26
2023-10-11T23:02:55.133Z,9.19
2023-10-11T23:05:26.065Z,9.13
2023-10-11T23:07:57.581Z,9.10
2023-10-11T23:10:28.590Z,9.09
2023-10-11T23:12:59.052Z,9.09
2023-10-11T23:15:35.769Z,9.08
2023-10-11T23:18:16.017Z,9.05
2023-10-11T23:20:59.605Z,9.03
2023-10-11T23:23:37.109Z,8.99
2023-10-11T23:26:10.529Z,8.97
2023-10-11T23:28:42.633Z,8.93
2023-10-11T23:31:18.520Z,8.90
2023-10-11T23:33:52.626Z,8.88
2023-10-11T23:36:25.891Z,8.81
2023-10-11T23:39:09.211Z,8.75
2023-10-11T23:41:43.343Z,8.72
2023-10-11T23:44:22.586Z,8.72
2023-10-11T23:47:00.881Z,8.73
2023-10-11T23:52:08.420Z,8.75
2023-10-11T23:54:43.775Z,8.73
2023-10-11T23:57:25.314Z,8.73
